createdAt,value
2018-01-17T00:00:09.770Z,1.62
2018-01-17T00:02:37.460Z,1.61
2018-01-17T00:05:05.312Z,1.61
2018-01-17T00:07:33.128Z,1.62
2018-01-17T00:10:00.825Z,1.66
2018-01-17T00:12:28.534Z,1.70
2018-01-17T00:14:56.251Z,1.74
2018-01-17T00:17:23.964Z,1.72
2018-01-17T00:19:51.674Z,1.76
2018-01-17T00:22:19.397Z,1.78
2018-01-17T00:24:47.120Z,1.78
2018-01-17T00:27:14.828Z,1.78
2018-01-17T00:29:42.491Z,1.63
2018-01-17T00:32:10.290Z,1.68
2018-01-17T00:34:38.013Z,1.64
2018-01-17T00:37:05.739Z,1.65
2018-01-17T00:39:33.426Z,1.66
2018-01-17T00:42:01.148Z,1.62
2018-01-17T00:44:28.891Z,1.61
2018-01-17T00:46:56.623Z,1.65
2018-01-17T00:49:24.357Z,1.72
2018-01-17T00:51:52.029Z,1.69
2018-01-17T00:54:20.024Z,1.70
2018-01-17T00:56:47.691Z,1.70
2018-01-17T00:59:15.412Z,1.69
2018-01-17T01:01:43.234Z,1.59
2018-01-17T01:04:10.951Z,1.56
2018-01-17T01:06:38.613Z,1.62
2018-01-17T01:09:06.309Z,1.51
2018-01-17T01:11:34.014Z,1.56
2018-01-17T01:14:01.732Z,1.59
2018-01-17T01:16:29.430Z,1.61
2018-01-17T01:18:57.123Z,1.54
2018-01-17T01:21:24.891Z,1.51
2018-01-17T01:23:52.656Z,1.61
2018-01-17T01:26:20.502Z,1.64
2018-01-17T01:28:48.252Z,1.65
2018-01-17T01:31:15.939Z,1.64
2018-01-17T01:33:45.130Z,1.64
2018-01-17T01:36:12.893Z,1.62
2018-01-17T01:38:40.657Z,1.69
2018-01-17T01:41:08.370Z,1.60
2018-01-17T01:43:36.045Z,1.59
2018-01-17T01:46:03.729Z,1.62
2018-01-17T01:48:31.471Z,1.62
2018-01-17T01:50:59.157Z,1.60
2018-01-17T01:53:26.888Z,1.65
2018-01-17T01:55:54.606Z,1.63
2018-01-17T01:58:22.383Z,1.61
2018-01-17T02:00:50.258Z,1.59
2018-01-17T02:03:17.996Z,1.62
2018-01-17T02:05:45.664Z,1.70
2018-01-17T02:08:13.364Z,1.53
2018-01-17T02:10:41.179Z,1.50
2018-01-17T02:13:08.854Z,1.59
2018-01-17T02:15:36.531Z,1.58
2018-01-17T02:18:04.266Z,1.60
2018-01-17T02:20:32.015Z,1.61
2018-01-17T02:22:59.714Z,1.59
2018-01-17T02:25:27.498Z,1.64
2018-01-17T02:27:55.247Z,1.68
2018-01-17T02:30:22.924Z,1.62
2018-01-17T02:32:50.668Z,1.57
2018-01-17T02:35:18.416Z,1.68
2018-01-17T02:37:46.115Z,1.70
2018-01-17T02:40:25.643Z,1.70
2018-01-17T02:42:53.363Z,1.65
2018-01-17T02:45:21.079Z,1.72
2018-01-17T02:47:48.849Z,1.74
2018-01-17T02:50:16.497Z,1.76
2018-01-17T02:52:44.147Z,1.67
2018-01-17T02:55:11.889Z,1.59
2018-01-17T02:57:39.580Z,1.58
2018-01-17T03:00:07.378Z,1.56
2018-01-17T03:02:35.105Z,1.59
2018-01-17T03:05:02.796Z,1.64
2018-01-17T03:07:30.500Z,1.63
2018-01-17T03:09:58.339Z,1.66
2018-01-17T03:12:26.078Z,1.67
2018-01-17T03:14:53.802Z,1.71
2018-01-17T03:17:21.521Z,1.74
2018-01-17T03:19:49.186Z,1.68
2018-01-17T03:22:16.973Z,1.72
2018-01-17T03:24:44.643Z,1.72
2018-01-17T03:27:12.345Z,1.72
2018-01-17T03:29:40.056Z,1.73
2018-01-17T03:32:07.801Z,1.76
2018-01-17T03:34:35.756Z,1.68
2018-01-17T03:37:03.534Z,1.69
2018-01-17T03:39:31.215Z,1.69
2018-01-17T03:41:58.961Z,1.72
2018-01-17T03:44:26.666Z,1.65
2018-01-17T03:46:54.413Z,1.69
2018-01-17T03:49:22.160Z,1.73
2018-01-17T03:51:49.929Z,1.74
2018-01-17T03:54:17.676Z,1.70
2018-01-17T03:56:45.473Z,1.66
2018-01-17T03:59:13.166Z,1.65
2018-01-17T04:01:40.847Z,1.63
2018-01-17T04:04:08.585Z,1.61
2018-01-17T04:06:36.260Z,1.65
2018-01-17T04:09:04.022Z,1.67
2018-01-17T04:11:31.758Z,1.64
2018-01-17T04:13:59.436Z,1.65
2018-01-17T04:16:27.209Z,1.72
2018-01-17T04:18:54.970Z,1.64
2018-01-17T04:21:22.674Z,1.62
2018-01-17T04:23:50.423Z,1.58
2018-01-17T04:26:18.140Z,1.55
2018-01-17T04:28:45.883Z,1.55
2018-01-17T04:31:13.564Z,1.65
2018-01-17T04:33:41.388Z,1.69
2018-01-17T04:36:09.290Z,1.73
2018-01-17T04:38:36.967Z,1.73
2018-01-17T04:41:04.769Z,1.78
2018-01-17T04:43:32.496Z,1.74
2018-01-17T04:46:00.203Z,1.59
2018-01-17T04:48:27.924Z,1.55
2018-01-17T04:50:55.730Z,1.48
2018-01-17T04:53:23.538Z,1.53
2018-01-17T04:55:51.256Z,1.59
2018-01-17T04:58:19.048Z,1.60
2018-01-17T05:00:46.757Z,1.60
2018-01-17T05:03:14.480Z,1.62
2018-01-17T05:05:42.173Z,1.64
2018-01-17T05:08:09.910Z,1.68
2018-01-17T05:10:37.630Z,1.70
2018-01-17T05:15:44.482Z,1.72
2018-01-17T05:18:12.271Z,1.72
2018-01-17T05:20:39.992Z,1.58
2018-01-17T05:23:07.666Z,1.63
2018-01-17T05:25:35.392Z,1.64
2018-01-17T05:28:03.093Z,1.64
2018-01-17T05:30:30.879Z,1.69
2018-01-17T05:32:58.578Z,1.64
2018-01-17T05:35:26.274Z,1.59
2018-01-17T05:37:54.403Z,1.63
2018-01-17T05:40:22.081Z,1.63
2018-01-17T05:42:50.081Z,1.51
2018-01-17T05:45:17.889Z,1.46
2018-01-17T05:47:45.559Z,1.53
2018-01-17T05:50:13.348Z,1.62
2018-01-17T05:52:41.230Z,1.66
2018-01-17T05:55:09.073Z,1.54
2018-01-17T05:57:36.758Z,1.59
2018-01-17T06:00:04.465Z,1.62
2018-01-17T06:02:32.307Z,1.64
2018-01-17T06:05:00.025Z,1.66
2018-01-17T06:07:28.262Z,1.70
2018-01-17T06:09:56.134Z,1.63
2018-01-17T06:12:23.953Z,1.55
2018-01-17T06:14:51.645Z,1.59
2018-01-17T06:17:19.485Z,1.61
2018-01-17T06:19:47.185Z,1.67
2018-01-17T06:22:14.960Z,1.64
2018-01-17T06:24:42.899Z,1.58
2018-01-17T06:27:10.596Z,1.57
2018-01-17T06:29:38.305Z,1.60
2018-01-17T06:32:06.070Z,1.61
2018-01-17T06:34:33.909Z,1.66
2018-01-17T06:37:01.576Z,1.65
2018-01-17T06:39:29.465Z,1.66
2018-01-17T06:41:57.162Z,1.64
2018-01-17T06:44:24.911Z,1.64
2018-01-17T06:46:53.710Z,1.58
2018-01-17T06:49:21.468Z,1.64
2018-01-17T06:51:49.214Z,1.63
2018-01-17T06:54:16.961Z,1.68
2018-01-17T06:56:44.718Z,1.62
2018-01-17T06:59:12.493Z,1.66
2018-01-17T07:01:40.243Z,1.58
2018-01-17T07:04:07.924Z,1.69
2018-01-17T07:06:35.686Z,1.66
2018-01-17T07:09:03.550Z,1.63
2018-01-17T07:11:31.335Z,1.56
2018-01-17T07:13:59.242Z,1.80
2018-01-17T07:16:27.271Z,2.02
2018-01-17T07:18:55.030Z,2.14
2018-01-17T07:21:22.736Z,2.08
2018-01-17T07:23:50.455Z,2.20
2018-01-17T07:26:18.191Z,2.19
2018-01-17T07:28:46.151Z,2.34
2018-01-17T07:31:14.145Z,2.38
2018-01-17T07:33:41.872Z,2.43
2018-01-17T07:36:09.692Z,2.39
2018-01-17T07:38:37.415Z,2.46
2018-01-17T07:41:05.146Z,2.24
2018-01-17T07:43:32.860Z,2.32
2018-01-17T07:46:00.584Z,2.23
2018-01-17T07:48:28.255Z,2.27
2018-01-17T07:50:56.217Z,2.26
2018-01-17T07:53:23.968Z,2.42
2018-01-17T07:55:51.756Z,2.49
2018-01-17T07:58:19.582Z,2.51
2018-01-17T08:00:47.373Z,2.66
2018-01-17T08:03:15.067Z,2.62
2018-01-17T08:05:42.802Z,2.66
2018-01-17T08:08:10.607Z,2.72
2018-01-17T08:10:38.441Z,2.72
2018-01-17T08:13:06.293Z,2.77
2018-01-17T08:15:34.018Z,2.57
2018-01-17T08:18:01.732Z,2.67
2018-01-17T08:20:29.474Z,2.67
2018-01-17T08:22:57.321Z,2.66
2018-01-17T08:25:25.052Z,2.77
2018-01-17T08:27:52.804Z,2.62
2018-01-17T08:30:21.274Z,2.59
2018-01-17T08:32:48.973Z,2.59
2018-01-17T08:35:16.764Z,2.57
2018-01-17T08:37:45.666Z,2.65
2018-01-17T08:40:13.437Z,2.66
2018-01-17T08:42:41.185Z,2.62
2018-01-17T08:45:08.960Z,2.84
2018-01-17T08:47:36.659Z,3.74
2018-01-17T08:50:04.427Z,4.68
2018-01-17T08:52:32.122Z,5.40
2018-01-17T08:54:59.925Z,6.05
2018-01-17T08:57:27.616Z,6.05
2018-01-17T08:59:55.364Z,6.49
2018-01-17T09:02:23.073Z,6.84
2018-01-17T09:04:50.806Z,6.86
2018-01-17T09:07:18.497Z,7.61
2018-01-17T09:09:46.260Z,7.63
2018-01-17T09:12:13.970Z,6.93
2018-01-17T09:14:42.230Z,6.61
2018-01-17T09:17:10.019Z,6.07
2018-01-17T09:19:37.742Z,6.08
2018-01-17T09:22:05.491Z,6.60
2018-01-17T09:24:33.259Z,6.58
2018-01-17T09:27:00.981Z,6.17
2018-01-17T09:29:28.682Z,5.07
2018-01-17T09:31:56.384Z,5.17
2018-01-17T09:34:24.099Z,4.83
2018-01-17T09:36:51.787Z,4.65
2018-01-17T09:39:19.582Z,4.27
2018-01-17T09:41:47.331Z,4.13
2018-01-17T09:44:15.036Z,3.30
2018-01-17T09:46:42.695Z,2.97
2018-01-17T09:49:10.413Z,2.77
2018-01-17T09:51:38.073Z,2.93
2018-01-17T09:54:05.782Z,2.55
2018-01-17T09:56:33.597Z,2.65
2018-01-17T09:59:01.369Z,2.25
2018-01-17T10:01:29.092Z,1.99
2018-01-17T10:03:56.900Z,1.85
2018-01-17T10:06:24.798Z,1.94
2018-01-17T10:08:52.545Z,1.60
2018-01-17T10:11:20.266Z,1.53
2018-01-17T10:13:48.142Z,1.50
2018-01-17T10:16:15.844Z,1.66
2018-01-17T10:18:43.548Z,1.72
2018-01-17T10:21:11.289Z,1.73
2018-01-17T10:23:38.998Z,1.66
2018-01-17T10:26:06.783Z,1.59
2018-01-17T10:28:34.549Z,1.53
2018-01-17T10:31:02.551Z,1.43
2018-01-17T10:33:30.235Z,1.44
2018-01-17T10:35:57.939Z,1.50
2018-01-17T10:38:25.707Z,1.49
2018-01-17T10:40:53.510Z,1.55
2018-01-17T10:43:21.274Z,1.61
2018-01-17T10:45:49.101Z,1.50
2018-01-17T10:48:16.809Z,1.37
2018-01-17T10:50:44.521Z,1.21
2018-01-17T10:53:12.235Z,1.06
2018-01-17T10:55:39.969Z,1.10
2018-01-17T10:58:07.794Z,1.35
2018-01-17T11:00:40.946Z,1.35
2018-01-17T11:03:08.660Z,1.38
2018-01-17T11:05:36.332Z,1.59
2018-01-17T11:08:04.111Z,1.86
2018-01-17T11:10:31.897Z,1.88
2018-01-17T11:12:59.648Z,1.83
2018-01-17T11:15:27.509Z,1.77
2018-01-17T11:17:55.241Z,1.59
2018-01-17T11:20:22.962Z,1.52
2018-01-17T11:22:50.694Z,1.85
2018-01-17T11:25:18.418Z,1.69
2018-01-17T11:27:46.209Z,1.68
2018-01-17T11:30:13.965Z,2.04
2018-01-17T11:32:41.726Z,1.78
2018-01-17T11:35:09.556Z,1.64
2018-01-17T11:37:37.257Z,1.86
2018-01-17T11:40:04.962Z,1.86
2018-01-17T11:42:32.825Z,1.96
2018-01-17T11:45:00.549Z,2.02
2018-01-17T11:47:28.287Z,1.99
2018-01-17T11:49:55.973Z,1.93
2018-01-17T11:52:23.741Z,1.94
2018-01-17T11:54:51.533Z,2.12
2018-01-17T11:57:19.326Z,2.42
2018-01-17T11:59:47.080Z,2.55
2018-01-17T12:02:14.794Z,3.14
2018-01-17T12:04:42.608Z,3.92
2018-01-17T12:07:10.342Z,4.32
2018-01-17T12:09:38.095Z,3.87
2018-01-17T12:12:05.887Z,4.15
2018-01-17T12:14:34.096Z,3.86
2018-01-17T12:17:01.827Z,3.66
2018-01-17T12:19:29.513Z,3.78
2018-01-17T12:21:57.275Z,3.52
2018-01-17T12:24:25.015Z,3.19
2018-01-17T12:26:52.778Z,4.11
2018-01-17T12:29:20.547Z,4.13
2018-01-17T12:31:48.253Z,4.01
2018-01-17T12:34:15.956Z,3.72
2018-01-17T12:36:43.712Z,4.20
2018-01-17T12:39:11.485Z,3.27
2018-01-17T12:41:39.233Z,3.08
2018-01-17T12:44:06.954Z,2.75
2018-01-17T12:46:34.712Z,2.64
2018-01-17T12:49:02.390Z,2.22
2018-01-17T12:51:30.160Z,1.98
2018-01-17T12:53:57.901Z,1.89
2018-01-17T12:56:25.915Z,2.28
2018-01-17T12:58:54.496Z,2.48
2018-01-17T13:01:22.281Z,2.38
2018-01-17T13:03:50.158Z,2.12
2018-01-17T13:06:18.056Z,2.47
2018-01-17T13:08:45.837Z,2.65
2018-01-17T13:11:13.626Z,2.19
2018-01-17T13:13:41.328Z,2.46
2018-01-17T13:16:09.053Z,2.49
2018-01-17T13:18:36.742Z,2.80
2018-01-17T13:21:04.540Z,3.12
2018-01-17T13:23:32.597Z,3.03
2018-01-17T13:26:00.620Z,3.37
2018-01-17T13:28:28.363Z,3.57
2018-01-17T13:30:56.070Z,3.71
2018-01-17T13:33:23.861Z,3.69
2018-01-17T13:35:51.650Z,3.44
2018-01-17T13:38:19.406Z,3.58
2018-01-17T13:40:47.116Z,3.65
2018-01-17T13:43:14.855Z,3.72
2018-01-17T13:45:42.738Z,4.11
2018-01-17T13:48:10.559Z,3.87
2018-01-17T13:50:38.335Z,3.64
2018-01-17T13:53:06.132Z,3.22
2018-01-17T13:55:33.845Z,2.89
2018-01-17T13:58:02.548Z,2.68
2018-01-17T14:00:30.363Z,2.75
2018-01-17T14:02:58.224Z,2.28
2018-01-17T14:05:25.963Z,2.26
2018-01-17T14:07:53.722Z,1.94
2018-01-17T14:10:21.427Z,2.15
2018-01-17T14:12:50.519Z,2.07
2018-01-17T14:15:18.232Z,1.87
2018-01-17T14:17:45.961Z,1.94
2018-01-17T14:20:16.695Z,1.69
2018-01-17T14:22:44.406Z,1.39
2018-01-17T14:25:12.120Z,1.34
2018-01-17T14:27:40.016Z,1.27
2018-01-17T14:30:07.826Z,1.22
2018-01-17T14:32:35.629Z,1.16
2018-01-17T14:35:04.624Z,1.07
2018-01-17T14:37:32.386Z,0.55
2018-01-17T14:40:00.333Z,0.28
2018-01-17T14:42:28.053Z,0.25
2018-01-17T14:44:55.846Z,0.12
2018-01-17T14:47:23.613Z,0.36
2018-01-17T14:49:51.365Z,0.26
2018-01-17T14:52:19.179Z,0.45
2018-01-17T14:54:46.923Z,0.47
2018-01-17T14:57:14.781Z,0.42
2018-01-17T14:59:42.571Z,0.47
2018-01-17T15:02:10.350Z,0.68
2018-01-17T15:04:38.105Z,0.74
2018-01-17T15:07:05.850Z,0.56
2018-01-17T15:09:33.573Z,0.36
2018-01-17T15:12:02.023Z,0.58
2018-01-17T15:14:29.752Z,0.46
2018-01-17T15:16:57.514Z,0.36
2018-01-17T15:19:25.406Z,0.41
2018-01-17T15:21:53.321Z,0.56
2018-01-17T15:24:21.219Z,0.38
2018-01-17T15:26:48.969Z,0.46
2018-01-17T15:29:16.744Z,0.55
2018-01-17T15:31:44.541Z,0.39
2018-01-17T15:34:12.320Z,0.18
2018-01-17T15:36:40.519Z,-0.04
2018-01-17T15:39:08.262Z,-0.05
2018-01-17T15:41:45.220Z,0.04
2018-01-17T15:44:21.822Z,0.23
2018-01-17T15:46:53.896Z,0.22
2018-01-17T15:52:08.426Z,0.06
2018-01-17T15:54:41.955Z,-0.06
2018-01-17T15:57:12.526Z,-0.07
2018-01-17T15:59:49.818Z,0.14
2018-01-17T16:02:31.358Z,-0.02
2018-01-17T16:05:07.907Z,-0.24
2018-01-17T16:10:16.652Z,-0.06
2018-01-17T16:15:35.288Z,-0.03
2018-01-17T16:18:04.314Z,0.05
2018-01-17T16:20:32.111Z,-0.02
2018-01-17T16:23:00.566Z,0.16
2018-01-17T16:25:28.394Z,-0.01
2018-01-17T16:27:56.156Z,-0.06
2018-01-17T16:30:23.974Z,-0.09
2018-01-17T16:32:53.232Z,-0.16
2018-01-17T16:35:21.657Z,-0.05
2018-01-17T16:37:49.496Z,-0.10
2018-01-17T16:40:17.374Z,-0.15
2018-01-17T16:42:45.197Z,-0.15
2018-01-17T16:45:13.099Z,-0.15
2018-01-17T16:47:40.923Z,-0.16
2018-01-17T16:50:08.650Z,-0.19
2018-01-17T16:52:36.503Z,-0.15
2018-01-17T16:55:04.519Z,-0.09
2018-01-17T16:57:32.264Z,-0.09
2018-01-17T17:00:00.053Z,-0.14
2018-01-17T17:02:27.813Z,-0.19
2018-01-17T17:04:55.621Z,-0.23
2018-01-17T17:07:23.390Z,-0.18
2018-01-17T17:09:51.215Z,-0.21
2018-01-17T17:12:18.965Z,-0.23
2018-01-17T17:14:47.962Z,-0.25
2018-01-17T17:17:15.819Z,-0.35
2018-01-17T17:19:43.550Z,-0.23
2018-01-17T17:22:11.360Z,-0.25
2018-01-17T17:24:39.061Z,-0.40
2018-01-17T17:27:06.823Z,-0.23
2018-01-17T17:29:34.573Z,-0.31
2018-01-17T17:32:03.471Z,-0.18
2018-01-17T17:34:31.256Z,-0.21
2018-01-17T17:36:59.000Z,-0.30
2018-01-17T17:39:26.826Z,-0.24
2018-01-17T17:41:54.572Z,-0.12
2018-01-17T17:44:22.351Z,-0.10
2018-01-17T17:46:50.153Z,-0.09
2018-01-17T17:49:17.912Z,-0.08
2018-01-17T17:51:45.693Z,-0.14
2018-01-17T17:54:13.502Z,-0.17
2018-01-17T17:56:41.222Z,-0.40
2018-01-17T17:59:08.923Z,-0.28
2018-01-17T18:01:36.981Z,-0.17
2018-01-17T18:04:04.719Z,-0.19
2018-01-17T18:06:32.466Z,-0.19
2018-01-17T18:09:00.247Z,-0.20
2018-01-17T18:11:28.116Z,-0.18
2018-01-17T18:13:55.953Z,-0.23
2018-01-17T18:16:23.719Z,0.08
2018-01-17T18:18:51.491Z,-0.04
2018-01-17T18:21:19.420Z,0.06
2018-01-17T18:23:47.166Z,0.03
2018-01-17T18:26:15.295Z,0.00
2018-01-17T18:28:43.099Z,-0.12
2018-01-17T18:31:10.945Z,-0.22
2018-01-17T18:33:38.917Z,-0.40
2018-01-17T18:36:06.967Z,-0.29
2018-01-17T18:38:34.918Z,-0.26
2018-01-17T18:41:02.862Z,-0.34
2018-01-17T18:43:32.105Z,-0.39
2018-01-17T18:45:59.928Z,-0.50
2018-01-17T18:48:27.770Z,-0.45
2018-01-17T18:50:55.674Z,-0.35
2018-01-17T18:53:23.425Z,-0.32
2018-01-17T18:55:51.242Z,-0.25
2018-01-17T18:58:19.203Z,-0.37
2018-01-17T19:00:47.004Z,-0.41
2018-01-17T19:03:14.761Z,-0.44
2018-01-17T19:05:42.539Z,-0.52
2018-01-17T19:08:10.329Z,-0.43
2018-01-17T19:10:38.301Z,-0.39
2018-01-17T19:13:05.980Z,-0.35
2018-01-17T19:15:33.721Z,-0.32
2018-01-17T19:18:01.456Z,-0.20
2018-01-17T19:20:29.181Z,-0.22
2018-01-17T19:22:56.933Z,-0.11
2018-01-17T19:25:24.680Z,-0.20
2018-01-17T19:27:52.416Z,-0.31
2018-01-17T19:30:20.228Z,-0.22
2018-01-17T19:32:47.988Z,-0.12
2018-01-17T19:35:16.764Z,-0.12
2018-01-17T19:37:44.518Z,-0.03
2018-01-17T19:40:12.703Z,-0.19
2018-01-17T19:42:40.520Z,-0.34
2018-01-17T19:45:08.316Z,-0.40
2018-01-17T19:47:37.064Z,-0.27
2018-01-17T19:50:04.983Z,-0.33
2018-01-17T19:52:32.824Z,-0.22
2018-01-17T19:55:01.174Z,-0.23
2018-01-17T19:57:29.451Z,-0.21
2018-01-17T19:59:57.309Z,-0.20
2018-01-17T20:02:26.035Z,-0.12
2018-01-17T20:04:55.242Z,0.00
2018-01-17T20:07:23.148Z,0.02
2018-01-17T20:09:51.215Z,-0.14
2018-01-17T20:12:20.875Z,-0.19
2018-01-17T20:14:49.525Z,-0.13
2018-01-17T20:17:17.474Z,-0.15
2018-01-17T20:19:47.301Z,0.01
2018-01-17T20:22:15.301Z,-0.11
2018-01-17T20:24:43.121Z,0.00
2018-01-17T20:27:10.993Z,-0.10
2018-01-17T20:29:38.805Z,0.01
2018-01-17T20:32:06.527Z,0.03
2018-01-17T20:34:34.418Z,0.02
2018-01-17T20:37:02.235Z,-0.03
2018-01-17T20:39:35.675Z,-0.06
2018-01-17T20:42:03.431Z,0.04
2018-01-17T20:44:31.186Z,0.10
2018-01-17T20:46:58.935Z,0.15
2018-01-17T20:49:26.728Z,0.07
2018-01-17T20:51:54.491Z,0.07
2018-01-17T20:54:22.302Z,0.19
2018-01-17T20:56:50.051Z,0.10
2018-01-17T20:59:17.831Z,0.16
2018-01-17T21:01:45.647Z,0.12
2018-01-17T21:04:13.491Z,0.02
2018-01-17T21:06:41.221Z,0.03
2018-01-17T21:09:09.415Z,0.03
2018-01-17T21:11:37.379Z,0.06
2018-01-17T21:14:05.120Z,0.16
2018-01-17T21:16:32.878Z,0.07
2018-01-17T21:19:00.695Z,0.21
2018-01-17T21:21:28.608Z,0.17
2018-01-17T21:23:56.325Z,0.23
2018-01-17T21:26:24.182Z,0.20
2018-01-17T21:28:51.871Z,0.19
2018-01-17T21:31:19.576Z,0.21
2018-01-17T21:33:47.346Z,0.09
2018-01-17T21:36:15.101Z,0.22
2018-01-17T21:38:42.828Z,0.30
2018-01-17T21:41:10.653Z,0.24
2018-01-17T21:43:43.861Z,0.14
2018-01-17T21:46:11.847Z,0.08
2018-01-17T21:48:39.602Z,0.06
2018-01-17T21:51:07.554Z,0.16
2018-01-17T21:53:35.310Z,0.07
2018-01-17T21:56:03.117Z,0.29
2018-01-17T21:58:30.825Z,0.16
2018-01-17T22:00:58.578Z,0.13
2018-01-17T22:03:26.314Z,0.16
2018-01-17T22:05:54.088Z,0.21
2018-01-17T22:08:21.743Z,0.16
2018-01-17T22:10:50.317Z,0.18
2018-01-17T22:13:17.982Z,0.26
2018-01-17T22:15:45.666Z,0.18
2018-01-17T22:18:13.402Z,0.36
2018-01-17T22:20:41.100Z,0.46
2018-01-17T22:23:08.816Z,0.39
2018-01-17T22:25:36.553Z,0.41
2018-01-17T22:28:04.346Z,0.61
2018-01-17T22:30:32.027Z,0.54
2018-01-17T22:32:59.900Z,0.59
2018-01-17T22:35:27.613Z,0.50
2018-01-17T22:37:55.363Z,0.23
2018-01-17T22:40:23.029Z,0.25
2018-01-17T22:42:50.781Z,0.25
2018-01-17T22:45:18.493Z,0.27
2018-01-17T22:47:46.164Z,0.17
2018-01-17T22:50:13.904Z,0.19
2018-01-17T22:52:41.667Z,-0.08
2018-01-17T22:55:09.406Z,0.04
2018-01-17T22:57:37.123Z,0.14
2018-01-17T23:00:04.923Z,0.12
2018-01-17T23:02:32.678Z,0.20
2018-01-17T23:05:00.383Z,0.13
2018-01-17T23:07:28.114Z,0.23
2018-01-17T23:09:55.856Z,0.13
2018-01-17T23:12:23.552Z,0.03
2018-01-17T23:14:51.220Z,0.12
2018-01-17T23:17:19.009Z,0.14
2018-01-17T23:19:46.775Z,0.11
2018-01-17T23:22:14.451Z,0.25
2018-01-17T23:24:42.227Z,0.22
2018-01-17T23:27:09.966Z,0.16
2018-01-17T23:29:37.644Z,0.13
2018-01-17T23:32:05.385Z,-0.06
2018-01-17T23:34:33.066Z,-0.09
2018-01-17T23:37:00.792Z,-0.23
2018-01-17T23:39:28.556Z,-0.33
2018-01-17T23:41:56.270Z,-0.30
2018-01-17T23:44:23.969Z,-0.28
2018-01-17T23:46:51.710Z,-0.19
2018-01-17T23:49:19.418Z,-0.32
2018-01-17T23:51:47.175Z,-0.36
2018-01-17T23:54:14.913Z,-0.35
2018-01-17T23:56:42.777Z,-0.34
2018-01-17T23:59:10.539Z,-0.45
